sensor_id;sensor_type;location;lat;lon;timestamp;temperature;humidity
66257;DHT22;53049;43.446;3.698;2024-02-28T00:01:03;10.00;99.90
66257;DHT22;53049;43.446;3.698;2024-02-28T00:03:28;9.90;99.90
66257;DHT22;53049;43.446;3.698;2024-02-28T00:05:54;9.90;99.90
66257;DHT22;53049;43.446;3.698;2024-02-28T00:08:20;10.00;99.90
66257;DHT22;53049;43.446;3.698;2024-02-28T00:10:46;9.90;99.90
66257;DHT22;53049;43.446;3.698;2024-02-28T00:13:12;9.90;99.90
66257;DHT22;53049;43.446;3.698;2024-02-28T00:15:39;9.90;99.90
66257;DHT22;53049;43.446;3.698;2024-02-28T00:18:05;9.90;99.90
66257;DHT22;53049;43.446;3.698;2024-02-28T00:20:31;10.00;99.90
66257;DHT22;53049;43.446;3.698;2024-02-28T00:22:56;10.00;99.90
66257;DHT22;53049;43.446;3.698;2024-02-28T00:25:22;9.90;99.90
66257;DHT22;53049;43.446;3.698;2024-02-28T00:27:48;10.00;99.90
66257;DHT22;53049;43.446;3.698;2024-02-28T00:30:13;9.90;99.90
66257;DHT22;53049;43.446;3.698;2024-02-28T00:32:39;9.90;99.90
66257;DHT22;53049;43.446;3.698;2024-02-28T00:35:05;9.90;99.90
66257;DHT22;53049;43.446;3.698;2024-02-28T00:37:31;9.90;99.90
66257;DHT22;53049;43.446;3.698;2024-02-28T00:39:56;9.90;99.90
66257;DHT22;53049;43.446;3.698;2024-02-28T00:42:22;9.90;99.90
66257;DHT22;53049;43.446;3.698;2024-02-28T00:44:48;9.90;99.90
66257;DHT22;53049;43.446;3.698;2024-02-28T00:47:13;9.90;99.90
66257;DHT22;53049;43.446;3.698;2024-02-28T00:49:40;9.90;99.90
66257;DHT22;53049;43.446;3.698;2024-02-28T00:52:05;9.80;99.90
66257;DHT22;53049;43.446;3.698;2024-02-28T00:54:31;9.80;99.90
66257;DHT22;53049;43.446;3.698;2024-02-28T00:56:56;9.80;99.90
66257;DHT22;53049;43.446;3.698;2024-02-28T00:59:22;9.80;99.90
66257;DHT22;53049;43.446;3.698;2024-02-28T01:01:51;9.70;99.90
66257;DHT22;53049;43.446;3.698;2024-02-28T01:04:17;9.70;99.90
66257;DHT22;53049;43.446;3.698;2024-02-28T01:06:42;9.70;99.90
66257;DHT22;53049;43.446;3.698;2024-02-28T01:09:08;9.70;99.90
66257;DHT22;53049;43.446;3.698;2024-02-28T01:11:34;9.70;99.90
66257;DHT22;53049;43.446;3.698;2024-02-28T01:13:59;9.70;99.90
66257;DHT22;53049;43.446;3.698;2024-02-28T01:16:25;9.70;99.90
66257;DHT22;53049;43.446;3.698;2024-02-28T01:18:51;9.70;99.90
66257;DHT22;53049;43.446;3.698;2024-02-28T01:21:17;9.70;99.90
66257;DHT22;53049;43.446;3.698;2024-02-28T01:23:42;9.70;99.90
66257;DHT22;53049;43.446;3.698;2024-02-28T01:26:08;9.70;99.90
66257;DHT22;53049;43.446;3.698;2024-02-28T01:28:34;9.70;99.90
66257;DHT22;53049;43.446;3.698;2024-02-28T01:30:59;9.70;99.90
66257;DHT22;53049;43.446;3.698;2024-02-28T01:33:26;9.70;99.90
66257;DHT22;53049;43.446;3.698;2024-02-28T01:35:51;9.60;99.90
66257;DHT22;53049;43.446;3.698;2024-02-28T01:38:17;9.60;99.90
66257;DHT22;53049;43.446;3.698;2024-02-28T01:40:46;9.70;99.90
66257;DHT22;53049;43.446;3.698;2024-02-28T01:43:12;9.60;99.90
66257;DHT22;53049;43.446;3.698;2024-02-28T01:45:38;9.70;99.90
66257;DHT22;53049;43.446;3.698;2024-02-28T01:48:05;9.70;99.90
66257;DHT22;53049;43.446;3.698;2024-02-28T01:50:32;9.60;99.90
66257;DHT22;53049;43.446;3.698;2024-02-28T01:52:58;9.60;99.90
66257;DHT22;53049;43.446;3.698;2024-02-28T01:55:25;9.60;99.90
66257;DHT22;53049;43.446;3.698;2024-02-28T01:57:52;9.60;99.90
66257;DHT22;53049;43.446;3.698;2024-02-28T02:00:19;9.60;99.90
66257;DHT22;53049;43.446;3.698;2024-02-28T02:02:47;9.60;99.90
66257;DHT22;53049;43.446;3.698;2024-02-28T02:05:12;9.60;99.90
66257;DHT22;53049;43.446;3.698;2024-02-28T02:07:41;9.60;99.90
66257;DHT22;53049;43.446;3.698;2024-02-28T02:10:07;9.60;99.90
66257;DHT22;53049;43.446;3.698;2024-02-28T02:12:36;9.60;99.90
66257;DHT22;53049;43.446;3.698;2024-02-28T02:15:02;9.60;99.90
66257;DHT22;53049;43.446;3.698;2024-02-28T02:17:27;9.60;99.90
66257;DHT22;53049;43.446;3.698;2024-02-28T02:19:53;9.60;99.90
66257;DHT22;53049;43.446;3.698;2024-02-28T02:22:20;9.60;99.90
66257;DHT22;53049;43.446;3.698;2024-02-28T02:24:46;9.60;99.90
66257;DHT22;53049;43.446;3.698;2024-02-28T02:27:12;9.60;99.90
66257;DHT22;53049;43.446;3.698;2024-02-28T02:29:38;9.60;99.90
66257;DHT22;53049;43.446;3.698;2024-02-28T02:32:03;9.60;99.90
66257;DHT22;53049;43.446;3.698;2024-02-28T02:34:30;9.60;99.90
66257;DHT22;53049;43.446;3.698;2024-02-28T02:36:55;9.60;99.90
66257;DHT22;53049;43.446;3.698;2024-02-28T02:39:21;9.60;99.90
66257;DHT22;53049;43.446;3.698;2024-02-28T02:41:46;9.60;99.90
66257;DHT22;53049;43.446;3.698;2024-02-28T02:44:13;9.60;99.90
66257;DHT22;53049;43.446;3.698;2024-02-28T02:46:38;9.60;99.90
66257;DHT22;53049;43.446;3.698;2024-02-28T02:49:04;9.60;99.90
66257;DHT22;53049;43.446;3.698;2024-02-28T02:51:30;9.60;99.90
66257;DHT22;53049;43.446;3.698;2024-02-28T02:53:56;9.60;99.90
66257;DHT22;53049;43.446;3.698;2024-02-28T02:56:21;9.60;99.90
66257;DHT22;53049;43.446;3.698;2024-02-28T02:58:47;9.60;99.90
66257;DHT22;53049;43.446;3.698;2024-02-28T03:01:12;9.60;99.90
66257;DHT22;53049;43.446;3.698;2024-02-28T03:03:38;9.60;99.90
66257;DHT22;53049;43.446;3.698;2024-02-28T03:06:04;9.60;99.90
66257;DHT22;53049;43.446;3.698;2024-02-28T03:08:31;9.50;99.90
66257;DHT22;53049;43.446;3.698;2024-02-28T03:10:56;9.60;99.90
66257;DHT22;53049;43.446;3.698;2024-02-28T03:13:22;9.60;99.90
66257;DHT22;53049;43.446;3.698;2024-02-28T03:15:48;9.60;99.90
66257;DHT22;53049;43.446;3.698;2024-02-28T03:18:14;9.60;99.90
66257;DHT22;53049;43.446;3.698;2024-02-28T03:20:39;9.60;99.90
66257;DHT22;53049;43.446;3.698;2024-02-28T03:23:05;9.60;99.90
66257;DHT22;53049;43.446;3.698;2024-02-28T03:25:34;9.50;99.90
66257;DHT22;53049;43.446;3.698;2024-02-28T03:28:00;9.50;99.90
66257;DHT22;53049;43.446;3.698;2024-02-28T03:30:27;9.60;99.90
66257;DHT22;53049;43.446;3.698;2024-02-28T03:32:52;9.50;99.90
66257;DHT22;53049;43.446;3.698;2024-02-28T03:35:18;9.50;99.90
66257;DHT22;53049;43.446;3.698;2024-02-28T03:37:43;9.50;99.90
66257;DHT22;53049;43.446;3.698;2024-02-28T03:40:09;9.50;99.90
66257;DHT22;53049;43.446;3.698;2024-02-28T03:42:35;9.50;99.90
66257;DHT22;53049;43.446;3.698;2024-02-28T03:45:01;9.60;99.90
66257;DHT22;53049;43.446;3.698;2024-02-28T03:47:26;9.60;99.90
66257;DHT22;53049;43.446;3.698;2024-02-28T03:49:52;9.50;99.90
66257;DHT22;53049;43.446;3.698;2024-02-28T03:52:18;9.50;99.90
66257;DHT22;53049;43.446;3.698;2024-02-28T03:54:44;9.50;99.90
66257;DHT22;53049;43.446;3.698;2024-02-28T03:57:10;9.60;99.90
66257;DHT22;53049;43.446;3.698;2024-02-28T03:59:35;9.60;99.90
66257;DHT22;53049;43.446;3.698;2024-02-28T04:02:01;9.60;99.90
66257;DHT22;53049;43.446;3.698;2024-02-28T04:04:26;9.60;99.90
66257;DHT22;53049;43.446;3.698;2024-02-28T04:06:52;9.60;99.90
66257;DHT22;53049;43.446;3.698;2024-02-28T04:09:18;9.60;99.90
66257;DHT22;53049;43.446;3.698;2024-02-28T04:11:43;9.60;99.90
66257;DHT22;53049;43.446;3.698;2024-02-28T04:14:09;9.60;99.90
66257;DHT22;53049;43.446;3.698;2024-02-28T04:16:40;9.60;99.90
66257;DHT22;53049;43.446;3.698;2024-02-28T04:19:05;9.60;99.90
66257;DHT22;53049;43.446;3.698;2024-02-28T04:21:31;9.60;99.90
66257;DHT22;53049;43.446;3.698;2024-02-28T04:23:57;9.60;99.90
66257;DHT22;53049;43.446;3.698;2024-02-28T04:26:22;9.60;99.90
66257;DHT22;53049;43.446;3.698;2024-02-28T04:28:48;9.60;99.90
66257;DHT22;53049;43.446;3.698;2024-02-28T04:31:13;9.60;99.90
66257;DHT22;53049;43.446;3.698;2024-02-28T04:33:39;9.60;99.90
66257;DHT22;53049;43.446;3.698;2024-02-28T04:36:05;9.60;99.90
66257;DHT22;53049;43.446;3.698;2024-02-28T04:38:30;9.60;99.90
66257;DHT22;53049;43.446;3.698;2024-02-28T04:40:56;9.60;99.90
66257;DHT22;53049;43.446;3.698;2024-02-28T04:43:22;9.60;99.90
66257;DHT22;53049;43.446;3.698;2024-02-28T04:45:47;9.60;99.90
66257;DHT22;53049;43.446;3.698;2024-02-28T04:48:13;9.50;99.90
66257;DHT22;53049;43.446;3.698;2024-02-28T04:50:39;9.60;99.90
66257;DHT22;53049;43.446;3.698;2024-02-28T04:53:07;9.50;99.90
66257;DHT22;53049;43.446;3.698;2024-02-28T04:55:32;9.50;99.90
66257;DHT22;53049;43.446;3.698;2024-02-28T04:57:58;9.50;99.90
66257;DHT22;53049;43.446;3.698;2024-02-28T05:00:23;9.50;99.90
66257;DHT22;53049;43.446;3.698;2024-02-28T05:02:49;9.50;99.90
66257;DHT22;53049;43.446;3.698;2024-02-28T05:05:15;9.50;99.90
66257;DHT22;53049;43.446;3.698;2024-02-28T05:07:41;9.50;99.90
66257;DHT22;53049;43.446;3.698;2024-02-28T05:10:07;9.40;99.90
66257;DHT22;53049;43.446;3.698;2024-02-28T05:12:32;9.40;99.90
66257;DHT22;53049;43.446;3.698;2024-02-28T05:14:58;9.50;99.90
66257;DHT22;53049;43.446;3.698;2024-02-28T05:17:24;9.50;99.90
66257;DHT22;53049;43.446;3.698;2024-02-28T05:19:49;9.40;99.90
66257;DHT22;53049;43.446;3.698;2024-02-28T05:22:15;9.40;99.90
66257;DHT22;53049;43.446;3.698;2024-02-28T05:24:40;9.30;99.90
66257;DHT22;53049;43.446;3.698;2024-02-28T05:27:09;9.30;99.90
66257;DHT22;53049;43.446;3.698;2024-02-28T05:29:34;9.30;99.90
66257;DHT22;53049;43.446;3.698;2024-02-28T05:32:00;9.30;99.90
66257;DHT22;53049;43.446;3.698;2024-02-28T05:34:26;9.30;99.90
66257;DHT22;53049;43.446;3.698;2024-02-28T05:36:52;9.30;99.90
66257;DHT22;53049;43.446;3.698;2024-02-28T05:39:17;9.30;99.90
66257;DHT22;53049;43.446;3.698;2024-02-28T05:41:43;9.30;99.90
66257;DHT22;53049;43.446;3.698;2024-02-28T05:44:08;9.30;99.90
66257;DHT22;53049;43.446;3.698;2024-02-28T05:46:34;9.30;99.90
66257;DHT22;53049;43.446;3.698;2024-02-28T05:49:02;9.30;99.90
66257;DHT22;53049;43.446;3.698;2024-02-28T05:51:28;9.40;99.90
66257;DHT22;53049;43.446;3.698;2024-02-28T05:53:53;9.40;99.90
66257;DHT22;53049;43.446;3.698;2024-02-28T05:56:19;9.40;99.90
66257;DHT22;53049;43.446;3.698;2024-02-28T05:58:46;9.40;99.90
66257;DHT22;53049;43.446;3.698;2024-02-28T06:01:15;9.40;99.90
66257;DHT22;53049;43.446;3.698;2024-02-28T06:03:41;9.40;99.90
66257;DHT22;53049;43.446;3.698;2024-02-28T06:06:06;9.40;99.90
66257;DHT22;53049;43.446;3.698;2024-02-28T06:08:33;9.40;99.90
66257;DHT22;53049;43.446;3.698;2024-02-28T06:10:59;9.40;99.90
66257;DHT22;53049;43.446;3.698;2024-02-28T06:13:26;9.40;99.90
66257;DHT22;53049;43.446;3.698;2024-02-28T06:15:52;9.40;99.90
66257;DHT22;53049;43.446;3.698;2024-02-28T06:18:17;9.40;99.90
66257;DHT22;53049;43.446;3.698;2024-02-28T06:20:43;9.40;99.90
66257;DHT22;53049;43.446;3.698;2024-02-28T06:23:09;9.40;99.90
66257;DHT22;53049;43.446;3.698;2024-02-28T06:25:35;9.40;99.90
66257;DHT22;53049;43.446;3.698;2024-02-28T06:28:00;9.40;99.90
66257;DHT22;53049;43.446;3.698;2024-02-28T06:30:28;9.40;99.90
66257;DHT22;53049;43.446;3.698;2024-02-28T06:32:54;9.40;99.90
66257;DHT22;53049;43.446;3.698;2024-02-28T06:35:19;9.40;99.90
66257;DHT22;53049;43.446;3.698;2024-02-28T06:37:45;9.40;99.90
66257;DHT22;53049;43.446;3.698;2024-02-28T06:40:15;9.40;99.90
66257;DHT22;53049;43.446;3.698;2024-02-28T06:42:41;9.40;99.90
66257;DHT22;53049;43.446;3.698;2024-02-28T06:45:07;9.40;99.90
66257;DHT22;53049;43.446;3.698;2024-02-28T06:47:34;9.40;99.90
66257;DHT22;53049;43.446;3.698;2024-02-28T06:50:02;9.40;99.90
66257;DHT22;53049;43.446;3.698;2024-02-28T06:52:28;9.40;99.90
66257;DHT22;53049;43.446;3.698;2024-02-28T06:54:53;9.40;99.90
66257;DHT22;53049;43.446;3.698;2024-02-28T06:57:19;9.40;99.90
66257;DHT22;53049;43.446;3.698;2024-02-28T06:59:45;9.50;99.90
66257;DHT22;53049;43.446;3.698;2024-02-28T07:02:10;9.40;99.90
66257;DHT22;53049;43.446;3.698;2024-02-28T07:04:38;9.40;99.90
66257;DHT22;53049;43.446;3.698;2024-02-28T07:07:04;9.50;99.90
66257;DHT22;53049;43.446;3.698;2024-02-28T07:09:30;9.50;99.90
66257;DHT22;53049;43.446;3.698;2024-02-28T07:11:58;9.50;99.90
66257;DHT22;53049;43.446;3.698;2024-02-28T07:14:24;9.50;99.90
66257;DHT22;53049;43.446;3.698;2024-02-28T07:16:49;9.50;99.90
66257;DHT22;53049;43.446;3.698;2024-02-28T07:19:17;9.60;99.90
66257;DHT22;53049;43.446;3.698;2024-02-28T07:21:43;9.60;99.90
66257;DHT22;53049;43.446;3.698;2024-02-28T07:24:09;9.60;99.90
66257;DHT22;53049;43.446;3.698;2024-02-28T07:26:35;9.60;99.90
66257;DHT22;53049;43.446;3.698;2024-02-28T07:29:01;9.60;99.90
66257;DHT22;53049;43.446;3.698;2024-02-28T07:31:26;9.70;99.90
66257;DHT22;53049;43.446;3.698;2024-02-28T07:33:52;9.70;99.90
66257;DHT22;53049;43.446;3.698;2024-02-28T07:36:18;9.70;99.90
66257;DHT22;53049;43.446;3.698;2024-02-28T07:38:44;9.80;99.90
66257;DHT22;53049;43.446;3.698;2024-02-28T07:41:10;9.70;99.90
66257;DHT22;53049;43.446;3.698;2024-02-28T07:43:35;9.80;99.90
66257;DHT22;53049;43.446;3.698;2024-02-28T07:46:10;9.80;99.90
66257;DHT22;53049;43.446;3.698;2024-02-28T07:48:37;9.80;99.90
66257;DHT22;53049;43.446;3.698;2024-02-28T07:51:09;9.90;99.90
66257;DHT22;53049;43.446;3.698;2024-02-28T07:53:35;9.90;99.90
66257;DHT22;53049;43.446;3.698;2024-02-28T07:56:00;10.00;99.90
66257;DHT22;53049;43.446;3.698;2024-02-28T07:58:26;10.00;99.90
66257;DHT22;53049;43.446;3.698;2024-02-28T08:00:52;10.00;99.90
66257;DHT22;53049;43.446;3.698;2024-02-28T08:03:18;10.10;99.90
66257;DHT22;53049;43.446;3.698;2024-02-28T08:05:44;10.10;99.90
66257;DHT22;53049;43.446;3.698;2024-02-28T08:08:10;10.20;99.90
66257;DHT22;53049;43.446;3.698;2024-02-28T08:10:37;10.20;99.90
66257;DHT22;53049;43.446;3.698;2024-02-28T08:13:04;10.20;99.90
66257;DHT22;53049;43.446;3.698;2024-02-28T08:15:30;10.20;99.90
66257;DHT22;53049;43.446;3.698;2024-02-28T08:17:55;10.20;99.90
66257;DHT22;53049;43.446;3.698;2024-02-28T08:20:21;10.30;99.90
66257;DHT22;53049;43.446;3.698;2024-02-28T08:22:47;10.30;99.90
66257;DHT22;53049;43.446;3.698;2024-02-28T08:25:13;10.30;99.90
66257;DHT22;53049;43.446;3.698;2024-02-28T08:27:39;10.40;99.90
66257;DHT22;53049;43.446;3.698;2024-02-28T08:30:05;10.40;99.90
66257;DHT22;53049;43.446;3.698;2024-02-28T08:32:32;10.40;99.90
66257;DHT22;53049;43.446;3.698;2024-02-28T08:34:58;10.30;99.90
66257;DHT22;53049;43.446;3.698;2024-02-28T08:37:24;10.40;99.90
66257;DHT22;53049;43.446;3.698;2024-02-28T08:39:50;10.40;99.90
66257;DHT22;53049;43.446;3.698;2024-02-28T08:42:16;10.40;99.90
66257;DHT22;53049;43.446;3.698;2024-02-28T08:44:42;10.40;99.90
66257;DHT22;53049;43.446;3.698;2024-02-28T08:47:07;10.40;99.90
66257;DHT22;53049;43.446;3.698;2024-02-28T08:49:34;10.40;99.90
66257;DHT22;53049;43.446;3.698;2024-02-28T08:52:01;10.40;99.90
66257;DHT22;53049;43.446;3.698;2024-02-28T08:54:27;10.50;99.90
66257;DHT22;53049;43.446;3.698;2024-02-28T08:56:53;10.60;99.90
66257;DHT22;53049;43.446;3.698;2024-02-28T08:59:18;10.60;99.90
66257;DHT22;53049;43.446;3.698;2024-02-28T09:01:44;10.60;99.90
66257;DHT22;53049;43.446;3.698;2024-02-28T09:04:10;10.60;99.90
66257;DHT22;53049;43.446;3.698;2024-02-28T09:06:35;10.70;99.90
66257;DHT22;53049;43.446;3.698;2024-02-28T09:09:01;10.70;99.90
66257;DHT22;53049;43.446;3.698;2024-02-28T09:11:27;10.80;99.90
66257;DHT22;53049;43.446;3.698;2024-02-28T09:13:52;10.80;99.90
66257;DHT22;53049;43.446;3.698;2024-02-28T09:16:18;10.70;99.90
66257;DHT22;53049;43.446;3.698;2024-02-28T09:18:44;10.80;99.90
66257;DHT22;53049;43.446;3.698;2024-02-28T09:21:10;10.80;99.90
66257;DHT22;53049;43.446;3.698;2024-02-28T09:23:35;10.90;99.90
66257;DHT22;53049;43.446;3.698;2024-02-28T09:26:05;10.90;99.90
66257;DHT22;53049;43.446;3.698;2024-02-28T09:28:31;11.00;99.90
66257;DHT22;53049;43.446;3.698;2024-02-28T09:30:57;11.00;99.90
66257;DHT22;53049;43.446;3.698;2024-02-28T09:33:23;11.00;99.90
66257;DHT22;53049;43.446;3.698;2024-02-28T09:35:49;11.10;99.90
66257;DHT22;53049;43.446;3.698;2024-02-28T09:38:14;11.10;99.90
66257;DHT22;53049;43.446;3.698;2024-02-28T09:40:40;11.10;99.90
66257;DHT22;53049;43.446;3.698;2024-02-28T09:43:11;11.20;99.90
66257;DHT22;53049;43.446;3.698;2024-02-28T09:45:39;11.20;99.90
66257;DHT22;53049;43.446;3.698;2024-02-28T09:48:06;11.30;99.90
66257;DHT22;53049;43.446;3.698;2024-02-28T09:50:32;11.20;99.90
66257;DHT22;53049;43.446;3.698;2024-02-28T09:52:58;11.30;99.90
66257;DHT22;53049;43.446;3.698;2024-02-28T09:55:24;11.40;99.90
66257;DHT22;53049;43.446;3.698;2024-02-28T09:57:51;11.40;99.90
66257;DHT22;53049;43.446;3.698;2024-02-28T10:00:19;11.50;99.90
66257;DHT22;53049;43.446;3.698;2024-02-28T10:02:47;11.50;99.90
66257;DHT22;53049;43.446;3.698;2024-02-28T10:05:14;11.50;99.90
66257;DHT22;53049;43.446;3.698;2024-02-28T10:07:42;11.60;99.90
66257;DHT22;53049;43.446;3.698;2024-02-28T10:10:07;11.70;99.90
66257;DHT22;53049;43.446;3.698;2024-02-28T10:12:34;11.80;99.90
66257;DHT22;53049;43.446;3.698;2024-02-28T10:15:02;12.00;99.90
66257;DHT22;53049;43.446;3.698;2024-02-28T10:17:29;12.00;99.90
66257;DHT22;53049;43.446;3.698;2024-02-28T10:19:58;12.10;99.90
66257;DHT22;53049;43.446;3.698;2024-02-28T10:22:25;12.00;99.90
66257;DHT22;53049;43.446;3.698;2024-02-28T10:24:57;12.10;99.90
66257;DHT22;53049;43.446;3.698;2024-02-28T10:27:23;12.00;99.90
66257;DHT22;53049;43.446;3.698;2024-02-28T10:29:49;12.00;99.90
66257;DHT22;53049;43.446;3.698;2024-02-28T10:32:15;12.00;99.90
66257;DHT22;53049;43.446;3.698;2024-02-28T10:34:41;12.00;99.90
66257;DHT22;53049;43.446;3.698;2024-02-28T10:37:07;12.00;99.90
66257;DHT22;53049;43.446;3.698;2024-02-28T10:39:34;11.90;99.90
66257;DHT22;53049;43.446;3.698;2024-02-28T10:42:01;12.00;99.90
66257;DHT22;53049;43.446;3.698;2024-02-28T10:44:28;12.00;99.90
66257;DHT22;53049;43.446;3.698;2024-02-28T10:46:56;12.00;99.90
66257;DHT22;53049;43.446;3.698;2024-02-28T10:49:22;12.10;99.90
66257;DHT22;53049;43.446;3.698;2024-02-28T10:51:49;12.10;99.90
66257;DHT22;53049;43.446;3.698;2024-02-28T10:54:16;12.20;99.90
66257;DHT22;53049;43.446;3.698;2024-02-28T10:56:46;12.20;99.90
66257;DHT22;53049;43.446;3.698;2024-02-28T10:59:12;12.20;99.90
66257;DHT22;53049;43.446;3.698;2024-02-28T11:01:40;12.20;99.90
66257;DHT22;53049;43.446;3.698;2024-02-28T11:04:10;12.20;99.90
66257;DHT22;53049;43.446;3.698;2024-02-28T11:06:50;12.30;99.90
66257;DHT22;53049;43.446;3.698;2024-02-28T11:09:20;12.30;99.90
66257;DHT22;53049;43.446;3.698;2024-02-28T11:11:51;12.20;99.90
66257;DHT22;53049;43.446;3.698;2024-02-28T11:14:17;12.30;99.90
66257;DHT22;53049;43.446;3.698;2024-02-28T11:16:46;12.30;99.90
66257;DHT22;53049;43.446;3.698;2024-02-28T11:19:24;12.20;99.90
66257;DHT22;53049;43.446;3.698;2024-02-28T11:21:56;12.30;99.90
66257;DHT22;53049;43.446;3.698;2024-02-28T11:24:32;12.30;99.90
66257;DHT22;53049;43.446;3.698;2024-02-28T11:26:58;12.30;99.90
66257;DHT22;53049;43.446;3.698;2024-02-28T11:29:28;12.30;99.90
66257;DHT22;53049;43.446;3.698;2024-02-28T11:31:57;12.40;99.90
66257;DHT22;53049;43.446;3.698;2024-02-28T11:34:22;12.50;99.90
66257;DHT22;53049;43.446;3.698;2024-02-28T11:36:49;12.50;99.90
66257;DHT22;53049;43.446;3.698;2024-02-28T11:39:15;12.60;99.90
66257;DHT22;53049;43.446;3.698;2024-02-28T11:41:42;12.50;99.90
66257;DHT22;53049;43.446;3.698;2024-02-28T11:44:07;12.60;99.90
66257;DHT22;53049;43.446;3.698;2024-02-28T11:46:33;12.60;99.90
66257;DHT22;53049;43.446;3.698;2024-02-28T11:49:01;12.60;99.90
66257;DHT22;53049;43.446;3.698;2024-02-28T11:51:27;12.50;99.90
66257;DHT22;53049;43.446;3.698;2024-02-28T11:53:52;12.50;99.90
66257;DHT22;53049;43.446;3.698;2024-02-28T11:56:19;12.50;99.90
66257;DHT22;53049;43.446;3.698;2024-02-28T11:58:53;12.60;99.90
66257;DHT22;53049;43.446;3.698;2024-02-28T12:01:42;12.60;99.90
66257;DHT22;53049;43.446;3.698;2024-02-28T12:04:09;12.50;99.90
66257;DHT22;53049;43.446;3.698;2024-02-28T12:06:39;12.50;99.90
66257;DHT22;53049;43.446;3.698;2024-02-28T12:09:10;12.60;99.90
66257;DHT22;53049;43.446;3.698;2024-02-28T12:11:37;12.70;99.90
66257;DHT22;53049;43.446;3.698;2024-02-28T12:14:04;12.70;99.90
66257;DHT22;53049;43.446;3.698;2024-02-28T12:16:32;12.80;99.90
66257;DHT22;53049;43.446;3.698;2024-02-28T12:18:58;12.80;99.90
66257;DHT22;53049;43.446;3.698;2024-02-28T12:21:23;12.80;99.90
66257;DHT22;53049;43.446;3.698;2024-02-28T12:23:50;12.70;99.90
66257;DHT22;53049;43.446;3.698;2024-02-28T12:26:19;12.70;99.90
66257;DHT22;53049;43.446;3.698;2024-02-28T12:28:45;12.70;99.90
66257;DHT22;53049;43.446;3.698;2024-02-28T12:31:11;12.70;99.90
66257;DHT22;53049;43.446;3.698;2024-02-28T12:33:39;12.70;99.90
66257;DHT22;53049;43.446;3.698;2024-02-28T12:36:05;12.70;99.90
66257;DHT22;53049;43.446;3.698;2024-02-28T12:38:31;12.70;99.90
66257;DHT22;53049;43.446;3.698;2024-02-28T12:40:57;12.80;99.90
66257;DHT22;53049;43.446;3.698;2024-02-28T12:43:23;12.90;99.90
66257;DHT22;53049;43.446;3.698;2024-02-28T12:45:50;13.00;99.90
66257;DHT22;53049;43.446;3.698;2024-02-28T12:48:16;13.00;99.90
66257;DHT22;53049;43.446;3.698;2024-02-28T12:50:42;13.10;99.90
66257;DHT22;53049;43.446;3.698;2024-02-28T12:53:07;13.10;99.90
66257;DHT22;53049;43.446;3.698;2024-02-28T12:55:33;13.00;99.90
66257;DHT22;53049;43.446;3.698;2024-02-28T12:57:59;13.10;99.90
66257;DHT22;53049;43.446;3.698;2024-02-28T13:00:30;13.10;99.90
66257;DHT22;53049;43.446;3.698;2024-02-28T13:02:56;13.10;99.90
66257;DHT22;53049;43.446;3.698;2024-02-28T13:05:21;13.10;99.90
66257;DHT22;53049;43.446;3.698;2024-02-28T13:07:47;13.10;99.90
66257;DHT22;53049;43.446;3.698;2024-02-28T13:10:13;13.20;99.90
66257;DHT22;53049;43.446;3.698;2024-02-28T13:12:38;13.20;99.90
66257;DHT22;53049;43.446;3.698;2024-02-28T13:15:05;13.30;99.90
66257;DHT22;53049;43.446;3.698;2024-02-28T13:17:31;13.30;99.90
66257;DHT22;53049;43.446;3.698;2024-02-28T13:19:57;13.30;99.90
66257;DHT22;53049;43.446;3.698;2024-02-28T13:22:22;13.30;99.90
66257;DHT22;53049;43.446;3.698;2024-02-28T13:24:48;13.30;99.90
66257;DHT22;53049;43.446;3.698;2024-02-28T13:27:14;13.20;99.90
66257;DHT22;53049;43.446;3.698;2024-02-28T13:29:39;13.20;99.90
66257;DHT22;53049;43.446;3.698;2024-02-28T13:32:05;13.30;99.90
66257;DHT22;53049;43.446;3.698;2024-02-28T13:34:31;13.20;99.90
66257;DHT22;53049;43.446;3.698;2024-02-28T13:36:57;13.20;99.90
66257;DHT22;53049;43.446;3.698;2024-02-28T13:39:23;13.10;99.90
66257;DHT22;53049;43.446;3.698;2024-02-28T13:41:52;13.20;99.90
66257;DHT22;53049;43.446;3.698;2024-02-28T13:44:18;13.10;99.90
66257;DHT22;53049;43.446;3.698;2024-02-28T13:46:50;13.20;99.90
66257;DHT22;53049;43.446;3.698;2024-02-28T13:49:17;13.20;99.90
66257;DHT22;53049;43.446;3.698;2024-02-28T13:51:43;13.20;99.90
66257;DHT22;53049;43.446;3.698;2024-02-28T13:54:08;13.40;99.90
66257;DHT22;53049;43.446;3.698;2024-02-28T13:56:34;13.40;99.90
66257;DHT22;53049;43.446;3.698;2024-02-28T13:59:00;13.30;99.90
66257;DHT22;53049;43.446;3.698;2024-02-28T14:01:25;13.20;99.90
66257;DHT22;53049;43.446;3.698;2024-02-28T14:03:51;13.20;99.90
66257;DHT22;53049;43.446;3.698;2024-02-28T14:06:17;13.30;99.90
66257;DHT22;53049;43.446;3.698;2024-02-28T14:08:43;13.30;99.90
66257;DHT22;53049;43.446;3.698;2024-02-28T14:11:08;13.40;99.90
66257;DHT22;53049;43.446;3.698;2024-02-28T14:13:34;13.40;99.90
66257;DHT22;53049;43.446;3.698;2024-02-28T14:16:00;13.30;99.90
66257;DHT22;53049;43.446;3.698;2024-02-28T14:18:25;13.30;99.90
66257;DHT22;53049;43.446;3.698;2024-02-28T14:20:51;13.30;99.90
66257;DHT22;53049;43.446;3.698;2024-02-28T14:23:16;13.30;99.90
66257;DHT22;53049;43.446;3.698;2024-02-28T14:25:43;13.30;99.90
66257;DHT22;53049;43.446;3.698;2024-02-28T14:28:08;13.30;99.90
66257;DHT22;53049;43.446;3.698;2024-02-28T14:30:35;13.30;99.90
66257;DHT22;53049;43.446;3.698;2024-02-28T14:33:00;13.30;99.90
66257;DHT22;53049;43.446;3.698;2024-02-28T14:35:26;13.30;99.90
66257;DHT22;53049;43.446;3.698;2024-02-28T14:37:51;13.20;99.90
66257;DHT22;53049;43.446;3.698;2024-02-28T14:40:17;13.20;99.90
66257;DHT22;53049;43.446;3.698;2024-02-28T14:42:43;13.40;99.90
66257;DHT22;53049;43.446;3.698;2024-02-28T14:45:11;13.40;99.90
66257;DHT22;53049;43.446;3.698;2024-02-28T14:47:41;13.60;99.90
66257;DHT22;53049;43.446;3.698;2024-02-28T14:50:07;13.50;99.90
66257;DHT22;53049;43.446;3.698;2024-02-28T14:52:40;13.60;99.90
66257;DHT22;53049;43.446;3.698;2024-02-28T14:55:10;13.60;99.90
66257;DHT22;53049;43.446;3.698;2024-02-28T14:57:37;13.50;99.90
66257;DHT22;53049;43.446;3.698;2024-02-28T15:00:03;13.40;99.90
66257;DHT22;53049;43.446;3.698;2024-02-28T15:02:34;13.30;99.90
66257;DHT22;53049;43.446;3.698;2024-02-28T15:05:00;13.20;99.90
66257;DHT22;53049;43.446;3.698;2024-02-28T15:07:27;13.20;99.90
66257;DHT22;53049;43.446;3.698;2024-02-28T15:09:52;13.10;99.90
66257;DHT22;53049;43.446;3.698;2024-02-28T15:12:18;13.10;99.90
66257;DHT22;53049;43.446;3.698;2024-02-28T15:14:44;13.20;99.90
66257;DHT22;53049;43.446;3.698;2024-02-28T15:17:10;13.20;99.90
66257;DHT22;53049;43.446;3.698;2024-02-28T15:19:36;13.30;99.90
66257;DHT22;53049;43.446;3.698;2024-02-28T15:22:01;13.30;99.90
66257;DHT22;53049;43.446;3.698;2024-02-28T15:24:27;13.40;99.90
66257;DHT22;53049;43.446;3.698;2024-02-28T15:26:53;13.50;99.90
66257;DHT22;53049;43.446;3.698;2024-02-28T15:29:18;13.50;99.90
66257;DHT22;53049;43.446;3.698;2024-02-28T15:31:45;13.50;99.90